createdAt,value
2023-02-19T00:00:34.258Z,95499.00
2023-02-19T00:01:34.293Z,95499.00
2023-02-19T00:02:34.315Z,95497.00
2023-02-19T00:03:34.362Z,95499.00
2023-02-19T00:04:34.327Z,95497.00
2023-02-19T00:05:34.334Z,95497.00
2023-02-19T00:06:34.340Z,95495.00
2023-02-19T00:07:34.391Z,95495.00
2023-02-19T00:08:34.366Z,95495.00
2023-02-19T00:09:34.399Z,95497.00
2023-02-19T00:10:34.420Z,95497.00
2023-02-19T00:11:34.459Z,95497.00
2023-02-19T00:12:34.481Z,95499.00
2023-02-19T00:13:34.489Z,95491.00
2023-02-19T00:14:34.501Z,95491.00
2023-02-19T00:15:34.547Z,95493.00
2023-02-19T00:16:34.522Z,95497.00
2023-02-19T00:17:34.543Z,95499.00
2023-02-19T00:18:34.591Z,95499.00
2023-02-19T00:19:34.552Z,95499.00
2023-02-19T00:20:34.576Z,95497.00
2023-02-19T00:21:34.573Z,95493.00
2023-02-19T00:22:34.603Z,95493.00
2023-02-19T00:23:34.645Z,95495.00
2023-02-19T00:24:34.641Z,95497.00
2023-02-19T00:25:34.679Z,95499.00
2023-02-19T00:26:34.662Z,95497.00
2023-02-19T00:27:34.679Z,95497.00
2023-02-19T00:28:34.717Z,95493.00
2023-02-19T00:29:34.719Z,95495.00
2023-02-19T00:30:34.740Z,95499.00
2023-02-19T00:31:34.948Z,95501.00
2023-02-19T00:32:34.720Z,95499.00
2023-02-19T00:33:34.756Z,95501.00
2023-02-19T00:34:34.782Z,95501.00
2023-02-19T00:35:34.747Z,95501.00
2023-02-19T00:36:34.777Z,95501.00
2023-02-19T00:37:34.762Z,95499.00
2023-02-19T00:38:34.834Z,95501.00
2023-02-19T00:39:34.733Z,95505.00
2023-02-19T00:40:34.745Z,95507.00
2023-02-19T00:41:34.755Z,95503.00
2023-02-19T00:42:34.778Z,95501.00
2023-02-19T00:43:34.747Z,95501.00
2023-02-19T00:44:34.731Z,95503.00
2023-02-19T00:45:34.733Z,95505.00
2023-02-19T00:46:34.806Z,95509.00
2023-02-19T00:47:34.768Z,95509.00
2023-02-19T00:48:34.730Z,95507.00
2023-02-19T00:49:34.732Z,95507.00
2023-02-19T00:50:34.759Z,95503.00
2023-02-19T00:51:34.830Z,95501.00
2023-02-19T00:52:34.819Z,95499.00
2023-02-19T00:53:35.383Z,95499.00
2023-02-19T00:54:34.896Z,95499.00
2023-02-19T00:55:34.918Z,95499.00
2023-02-19T00:56:34.945Z,95499.00
2023-02-19T00:57:34.924Z,95499.00
2023-02-19T00:58:34.941Z,95497.00
2023-02-19T00:59:34.955Z,95495.00
2023-02-19T01:00:34.986Z,95493.00
2023-02-19T01:01:35.104Z,95489.00
2023-02-19T01:02:35.004Z,95493.00
2023-02-19T01:03:35.049Z,95491.00
2023-02-19T01:04:35.112Z,95491.00
2023-02-19T01:05:35.112Z,95487.00
2023-02-19T01:06:35.176Z,95487.00
2023-02-19T01:07:35.189Z,95489.00
2023-02-19T01:08:35.226Z,95489.00
2023-02-19T01:09:35.261Z,95491.00
2023-02-19T01:10:35.267Z,95493.00
2023-02-19T01:11:35.322Z,95495.00
2023-02-19T01:12:35.363Z,95495.00
2023-02-19T01:13:35.374Z,95491.00
2023-02-19T01:14:35.442Z,95487.00
2023-02-19T01:15:35.380Z,95485.00
2023-02-19T01:16:35.437Z,95489.00
2023-02-19T01:17:35.449Z,95489.00
2023-02-19T01:18:35.502Z,95493.00
2023-02-19T01:19:35.511Z,95495.00
2023-02-19T01:20:35.579Z,95491.00
2023-02-19T01:21:35.576Z,95489.00
2023-02-19T01:22:35.589Z,95485.00
2023-02-19T01:23:35.636Z,95479.00
2023-02-19T01:24:35.655Z,95483.00
2023-02-19T01:25:35.666Z,95489.00
2023-02-19T01:26:35.736Z,95493.00
2023-02-19T01:27:35.737Z,95491.00
2023-02-19T01:28:35.733Z,95487.00
2023-02-19T01:29:35.735Z,95481.00
2023-02-19T01:30:35.806Z,95481.00
2023-02-19T01:31:35.895Z,95483.00
2023-02-19T01:32:35.799Z,95485.00
2023-02-19T01:33:35.809Z,95483.00
2023-02-19T01:34:35.807Z,95481.00
2023-02-19T01:35:35.820Z,95481.00
2023-02-19T01:36:35.809Z,95481.00
2023-02-19T01:37:35.817Z,95483.00
2023-02-19T01:38:35.840Z,95481.00
2023-02-19T01:39:35.838Z,95479.00
2023-02-19T01:40:35.861Z,95477.00
2023-02-19T01:41:35.848Z,95477.00
2023-02-19T01:42:35.870Z,95481.00
2023-02-19T01:43:35.862Z,95481.00
2023-02-19T01:44:35.877Z,95481.00
2023-02-19T01:45:35.847Z,95479.00
2023-02-19T01:46:35.903Z,95475.00
2023-02-19T01:47:35.866Z,95469.00
2023-02-19T01:48:35.820Z,95471.00
2023-02-19T01:49:35.848Z,95471.00
2023-02-19T01:50:35.877Z,95475.00
2023-02-19T01:51:35.894Z,95475.00
2023-02-19T01:52:35.888Z,95475.00
2023-02-19T01:53:35.899Z,95475.00
2023-02-19T01:54:35.926Z,95475.00
2023-02-19T01:55:35.895Z,95475.00
2023-02-19T01:56:35.933Z,95471.00
2023-02-19T01:57:35.920Z,95469.00
2023-02-19T01:58:35.981Z,95467.00
2023-02-19T01:59:35.934Z,95471.00
2023-02-19T02:00:36.001Z,95471.00
2023-02-19T02:01:36.002Z,95467.00
2023-02-19T02:02:36.004Z,95464.00
2023-02-19T02:03:35.999Z,95458.00
2023-02-19T02:04:36.045Z,95458.00
2023-02-19T02:05:36.100Z,95460.00
2023-02-19T02:06:36.103Z,95458.00
2023-02-19T02:07:36.139Z,95462.00
2023-02-19T02:08:36.167Z,95458.00
2023-02-19T02:09:36.169Z,95460.00
2023-02-19T02:10:36.237Z,95454.00
2023-02-19T02:11:36.274Z,95456.00
2023-02-19T02:12:36.314Z,95452.00
2023-02-19T02:13:36.346Z,95452.00
2023-02-19T02:14:36.362Z,95450.00
2023-02-19T02:15:36.405Z,95454.00
2023-02-19T02:16:36.468Z,95454.00
2023-02-19T02:17:36.473Z,95452.00
2023-02-19T02:18:36.519Z,95450.00
2023-02-19T02:19:36.602Z,95448.00
2023-02-19T02:20:36.605Z,95448.00
2023-02-19T02:21:36.603Z,95446.00
2023-02-19T02:22:36.653Z,95442.00
2023-02-19T02:23:36.677Z,95440.00
2023-02-19T02:24:36.731Z,95440.00
2023-02-19T02:25:36.739Z,95440.00
2023-02-19T02:26:36.774Z,95440.00
2023-02-19T02:27:36.821Z,95438.00
2023-02-19T02:28:36.857Z,95438.00
2023-02-19T02:29:36.909Z,95438.00
2023-02-19T02:30:36.923Z,95442.00
2023-02-19T02:31:37.076Z,95438.00
2023-02-19T02:32:36.950Z,95438.00
2023-02-19T02:33:37.016Z,95436.00
2023-02-19T02:34:37.022Z,95434.00
2023-02-19T02:35:37.046Z,95436.00
2023-02-19T02:36:37.068Z,95434.00
2023-02-19T02:37:37.048Z,95428.00
2023-02-19T02:38:37.082Z,95428.00
2023-02-19T02:39:37.053Z,95432.00
2023-02-19T02:40:37.039Z,95432.00
2023-02-19T02:41:37.052Z,95432.00
2023-02-19T02:42:37.051Z,95430.00
2023-02-19T02:43:37.011Z,95430.00
2023-02-19T02:44:37.075Z,95430.00
2023-02-19T02:45:37.442Z,95434.00
2023-02-19T02:46:37.082Z,95428.00
2023-02-19T02:47:37.110Z,95413.00
2023-02-19T02:48:37.153Z,95414.00
2023-02-19T02:49:37.142Z,95418.00
2023-02-19T02:50:37.167Z,95428.00
2023-02-19T02:51:37.201Z,95428.00
2023-02-19T02:52:37.266Z,95420.00
2023-02-19T02:53:37.293Z,95414.00
2023-02-19T02:54:37.301Z,95416.00
2023-02-19T02:55:37.362Z,95420.00
2023-02-19T02:56:37.375Z,95418.00
2023-02-19T02:57:37.426Z,95413.00
2023-02-19T02:58:37.470Z,95411.00
2023-02-19T02:59:37.500Z,95409.00
2023-02-19T03:00:37.512Z,95411.00
2023-02-19T03:01:37.593Z,95409.00
2023-02-19T03:02:37.601Z,95407.00
2023-02-19T03:03:37.592Z,95397.00
2023-02-19T03:04:37.650Z,95393.00
2023-02-19T03:05:37.675Z,95399.00
2023-02-19T03:06:37.676Z,95405.00
2023-02-19T03:07:37.699Z,95409.00
2023-02-19T03:08:37.778Z,95405.00
2023-02-19T03:09:37.777Z,95399.00
2023-02-19T03:10:37.858Z,95391.00
2023-02-19T03:11:37.859Z,95391.00
2023-02-19T03:12:37.926Z,95397.00
2023-02-19T03:13:37.912Z,95395.00
2023-02-19T03:14:37.965Z,95399.00
2023-02-19T03:15:37.989Z,95403.00
2023-02-19T03:16:38.067Z,95403.00
2023-02-19T03:17:38.050Z,95393.00
2023-02-19T03:18:38.116Z,95393.00
2023-02-19T03:19:38.087Z,95393.00
2023-02-19T03:20:38.142Z,95397.00
2023-02-19T03:21:38.164Z,95395.00
2023-02-19T03:22:38.159Z,95399.00
2023-02-19T03:23:38.187Z,95403.00
2023-02-19T03:24:38.221Z,95401.00
2023-02-19T03:25:38.264Z,95393.00
2023-02-19T03:26:38.315Z,95385.00
2023-02-19T03:27:38.336Z,95389.00
2023-02-19T03:28:38.380Z,95397.00
2023-02-19T03:29:38.461Z,95401.00
2023-02-19T03:30:38.510Z,95397.00
2023-02-19T03:31:38.606Z,95391.00
2023-02-19T03:32:38.546Z,95387.00
2023-02-19T03:33:38.571Z,95387.00
2023-02-19T03:34:38.592Z,95389.00
2023-02-19T03:35:38.606Z,95387.00
2023-02-19T03:36:38.656Z,95383.00
2023-02-19T03:37:38.698Z,95383.00
2023-02-19T03:38:38.725Z,95379.00
2023-02-19T03:39:38.759Z,95379.00
2023-02-19T03:40:38.814Z,95383.00
2023-02-19T03:41:38.826Z,95385.00
2023-02-19T03:42:38.865Z,95389.00
2023-02-19T03:43:38.902Z,95383.00
2023-02-19T03:44:38.932Z,95381.00
2023-02-19T03:45:38.982Z,95383.00
2023-02-19T03:46:38.946Z,95385.00
2023-02-19T03:47:38.989Z,95375.00
2023-02-19T03:48:38.979Z,95364.00
2023-02-19T03:49:38.998Z,95362.00
2023-02-19T03:50:38.985Z,95358.00
2023-02-19T03:51:39.014Z,95360.00
2023-02-19T03:52:39.058Z,95358.00
2023-02-19T03:53:39.032Z,95364.00
2023-02-19T03:54:39.939Z,95369.00
2023-02-19T03:55:39.073Z,95369.00
2023-02-19T03:56:39.095Z,95362.00
2023-02-19T03:57:39.101Z,95356.00
2023-02-19T03:58:39.095Z,95358.00
2023-02-19T03:59:39.107Z,95360.00
2023-02-19T04:00:39.116Z,95356.00
2023-02-19T04:01:39.170Z,95356.00
2023-02-19T04:02:39.162Z,95352.00
2023-02-19T04:03:39.207Z,95352.00
2023-02-19T04:04:39.221Z,95348.00
2023-02-19T04:05:39.222Z,95350.00
2023-02-19T04:06:39.256Z,95352.00
2023-02-19T04:07:39.252Z,95348.00
2023-02-19T04:08:39.202Z,95344.00
2023-02-19T04:09:39.241Z,95342.00
2023-02-19T04:10:39.271Z,95344.00
2023-02-19T04:11:39.295Z,95346.00
2023-02-19T04:12:39.311Z,95346.00
2023-02-19T04:13:39.362Z,95338.00
2023-02-19T04:14:39.420Z,95336.00
2023-02-19T04:15:39.421Z,95346.00
2023-02-19T04:16:39.505Z,95346.00
2023-02-19T04:17:39.465Z,95342.00
2023-02-19T04:18:39.614Z,95332.00
2023-02-19T04:19:39.584Z,95338.00
2023-02-19T04:20:39.563Z,95338.00
2023-02-19T04:21:39.607Z,95340.00
2023-02-19T04:22:39.632Z,95336.00
2023-02-19T04:23:39.651Z,95338.00
2023-02-19T04:24:39.729Z,95346.00
2023-02-19T04:25:39.727Z,95346.00
2023-02-19T04:26:39.815Z,95338.00
2023-02-19T04:27:39.822Z,95332.00
2023-02-19T04:28:39.848Z,95340.00
2023-02-19T04:29:39.932Z,95344.00
2023-02-19T04:30:40.033Z,95344.00
2023-02-19T04:31:39.990Z,95348.00
2023-02-19T04:32:39.984Z,95350.00
2023-02-19T04:33:40.030Z,95350.00
2023-02-19T04:34:40.056Z,95342.00
2023-02-19T04:35:40.098Z,95342.00
2023-02-19T04:36:40.142Z,95344.00
2023-02-19T04:37:40.181Z,95354.00
2023-02-19T04:38:40.236Z,95356.00
2023-02-19T04:39:40.228Z,95356.00
2023-02-19T04:40:40.317Z,95346.00
2023-02-19T04:41:40.336Z,95340.00
2023-02-19T04:42:40.349Z,95338.00
2023-02-19T04:43:40.424Z,95336.00
2023-02-19T04:57:40.644Z,95324.00
2023-02-19T04:58:40.688Z,95326.00
2023-02-19T04:59:40.752Z,95328.00
2023-02-19T05:00:40.769Z,95326.00
2023-02-19T05:01:40.862Z,95317.00
2023-02-19T05:02:40.871Z,95311.00
2023-02-19T05:03:40.899Z,95317.00
2023-02-19T05:04:40.978Z,95319.00
2023-02-19T05:05:40.934Z,95320.00
2023-02-19T05:06:40.996Z,95315.00
2023-02-19T05:07:41.036Z,95311.00
2023-02-19T05:08:41.063Z,95309.00
2023-02-19T05:09:41.143Z,95305.00
2023-02-19T05:10:41.156Z,95303.00
2023-02-19T05:11:41.206Z,95307.00
2023-02-19T05:12:41.243Z,95309.00
2023-02-19T05:13:41.419Z,95307.00
2023-02-19T05:14:41.335Z,95305.00
2023-02-19T05:15:41.379Z,95305.00
2023-02-19T05:16:41.398Z,95309.00
2023-02-19T05:17:41.427Z,95309.00
2023-02-19T05:18:41.463Z,95311.00
2023-02-19T05:19:41.516Z,95315.00
2023-02-19T05:20:41.534Z,95322.00
2023-02-19T05:21:41.569Z,95326.00
2023-02-19T05:22:41.609Z,95332.00
2023-02-19T05:23:41.628Z,95328.00
2023-02-19T05:24:41.734Z,95324.00
2023-02-19T05:25:41.710Z,95324.00
2023-02-19T05:26:43.482Z,95334.00
2023-02-19T05:27:41.789Z,95340.00
2023-02-19T05:28:41.724Z,95342.00
2023-02-19T05:29:41.740Z,95334.00
2023-02-19T05:30:41.724Z,95338.00
2023-02-19T05:31:41.874Z,95340.00
2023-02-19T05:32:41.737Z,95344.00
2023-02-19T06:42:41.791Z,95440.00
2023-02-19T06:43:41.855Z,95444.00
2023-02-19T06:44:41.882Z,95448.00
2023-02-19T06:45:41.885Z,95446.00
2023-02-19T06:46:42.020Z,95442.00
2023-02-19T06:47:41.961Z,95436.00
2023-02-19T06:50:41.962Z,95440.00
2023-02-19T06:51:41.974Z,95448.00
2023-02-19T06:52:41.949Z,95458.00
2023-02-19T06:53:41.945Z,95458.00
2023-02-19T06:54:41.941Z,95458.00
2023-02-19T06:57:42.113Z,95460.00
2023-02-19T06:58:42.029Z,95464.00
2023-02-19T06:59:42.090Z,95462.00
2023-02-19T07:00:42.125Z,95460.00
2023-02-19T07:01:42.172Z,95452.00
2023-02-19T07:02:42.203Z,95456.00
2023-02-19T07:03:42.243Z,95458.00
2023-02-19T07:04:42.285Z,95458.00
2023-02-19T07:05:42.321Z,95458.00
2023-02-19T07:06:42.348Z,95454.00
2023-02-19T07:07:42.396Z,95458.00
2023-02-19T07:08:42.440Z,95466.00
2023-02-19T07:09:42.478Z,95471.00
2023-02-19T07:10:42.527Z,95469.00
2023-02-19T07:11:42.581Z,95464.00
2023-02-19T07:12:42.599Z,95466.00
2023-02-19T07:13:42.683Z,95471.00
2023-02-19T07:14:42.700Z,95473.00
2023-02-19T07:15:42.739Z,95467.00
2023-02-19T07:16:42.793Z,95467.00
2023-02-19T07:17:42.814Z,95460.00
2023-02-19T07:18:42.879Z,95456.00
2023-02-19T07:19:42.894Z,95464.00
2023-02-19T07:20:42.925Z,95469.00
2023-02-19T07:21:42.983Z,95462.00
2023-02-19T07:22:43.013Z,95452.00
2023-02-19T07:23:43.019Z,95444.00
2023-02-19T07:24:43.106Z,95454.00
2023-02-19T07:25:43.134Z,95464.00
2023-02-19T07:26:43.191Z,95467.00
2023-02-19T07:27:43.202Z,95471.00
2023-02-19T07:28:43.269Z,95469.00
2023-02-19T07:29:43.310Z,95466.00
2023-02-19T07:30:43.298Z,95471.00
2023-02-19T07:31:43.319Z,95481.00
2023-02-19T07:32:43.326Z,95485.00
2023-02-19T07:33:43.331Z,95483.00
2023-02-19T07:34:43.294Z,95479.00
2023-02-19T07:35:43.352Z,95479.00
2023-02-19T07:36:43.414Z,95489.00
2023-02-19T07:37:43.408Z,95503.00
2023-02-19T07:38:43.488Z,95499.00
2023-02-19T07:39:43.552Z,95483.00
2023-02-19T07:40:43.571Z,95471.00
2023-02-19T07:41:43.604Z,95489.00
2023-02-19T07:42:43.635Z,95509.00
2023-02-19T07:43:43.686Z,95511.00
2023-02-19T07:44:43.714Z,95507.00
2023-02-19T07:45:43.774Z,95505.00
2023-02-19T07:46:43.801Z,95499.00
2023-02-19T07:47:43.831Z,95493.00
2023-02-19T07:48:43.899Z,95499.00
2023-02-19T07:49:43.925Z,95513.00
2023-02-19T07:50:43.969Z,95518.00
2023-02-19T07:51:44.002Z,95513.00
2023-02-19T07:52:44.078Z,95505.00
2023-02-19T07:53:44.078Z,95511.00
2023-02-19T07:54:44.113Z,95516.00
2023-02-19T07:55:44.122Z,95511.00
2023-02-19T07:56:44.167Z,95503.00
2023-02-19T07:57:44.216Z,95507.00
2023-02-19T07:58:44.250Z,95511.00
2023-02-19T07:59:44.255Z,95518.00
2023-02-19T08:00:44.339Z,95522.00
2023-02-19T08:01:44.351Z,95524.00
2023-02-19T08:02:44.417Z,95524.00
2023-02-19T08:03:44.425Z,95518.00
2023-02-19T08:04:44.463Z,95509.00
2023-02-19T08:05:44.512Z,95507.00
2023-02-19T08:06:44.538Z,95518.00
2023-02-19T08:07:44.586Z,95528.00
2023-02-19T08:08:44.615Z,95530.00
2023-02-19T08:09:44.641Z,95522.00
2023-02-19T08:10:44.711Z,95518.00
2023-02-19T08:11:44.745Z,95516.00
2023-02-19T08:12:44.779Z,95522.00
2023-02-19T08:13:44.833Z,95524.00
2023-02-19T08:14:44.878Z,95524.00
2023-02-19T08:15:44.901Z,95528.00
2023-02-19T08:16:44.996Z,95524.00
2023-02-19T08:17:45.026Z,95524.00
2023-02-19T08:18:45.030Z,95520.00
2023-02-19T08:19:45.094Z,95516.00
2023-02-19T08:20:45.112Z,95518.00
2023-02-19T08:21:45.059Z,95528.00
2023-02-19T08:22:45.077Z,95530.00
2023-02-19T08:23:45.062Z,95530.00
2023-02-19T08:24:45.083Z,95524.00
2023-02-19T08:25:45.042Z,95530.00
2023-02-19T08:26:45.029Z,95526.00
2023-02-19T08:27:45.042Z,95520.00
2023-02-19T08:28:45.030Z,95516.00
2023-02-19T08:29:45.045Z,95526.00
2023-02-19T08:30:45.092Z,95528.00
2023-02-19T08:31:45.196Z,95528.00
2023-02-19T08:32:45.025Z,95520.00
2023-02-19T08:33:45.029Z,95513.00
2023-02-19T08:34:45.013Z,95503.00
2023-02-19T08:35:45.032Z,95511.00
2023-02-19T08:36:45.006Z,95518.00
2023-02-19T08:37:45.065Z,95518.00
2023-02-19T08:38:45.006Z,95513.00
2023-02-19T08:39:45.009Z,95511.00
2023-02-19T08:40:45.022Z,95511.00
2023-02-19T08:41:45.016Z,95514.00
2023-02-19T08:42:45.033Z,95514.00
2023-02-19T08:43:45.037Z,95507.00
2023-02-19T08:44:45.017Z,95501.00
2023-02-19T08:45:45.085Z,95507.00
2023-02-19T08:46:45.109Z,95516.00
2023-02-19T08:47:45.132Z,95524.00
2023-02-19T08:48:45.223Z,95522.00
2023-02-19T08:49:45.252Z,95511.00
2023-02-19T08:50:45.320Z,95505.00
2023-02-19T08:51:45.392Z,95509.00
2023-02-19T08:52:45.397Z,95505.00
2023-02-19T08:53:45.414Z,95501.00
2023-02-19T08:54:45.418Z,95509.00
2023-02-19T08:55:45.472Z,95520.00
2023-02-19T08:56:45.500Z,95516.00
2023-02-19T08:57:45.572Z,95518.00
2023-02-19T08:58:45.662Z,95507.00
2023-02-19T08:59:45.683Z,95505.00
2023-02-19T09:00:45.716Z,95503.00
2023-02-19T09:01:45.847Z,95511.00
2023-02-19T09:02:45.849Z,95501.00
2023-02-19T09:03:46.096Z,95501.00
2023-02-19T09:04:45.924Z,95501.00
2023-02-19T09:05:45.956Z,95501.00
2023-02-19T09:06:46.042Z,95511.00
2023-02-19T09:07:46.127Z,95514.00
2023-02-19T09:08:46.127Z,95509.00
2023-02-19T09:09:46.155Z,95507.00
2023-02-19T09:10:46.212Z,95505.00
2023-02-19T09:11:48.997Z,95501.00
2023-02-19T09:12:46.221Z,95489.00
2023-02-19T09:13:46.261Z,95495.00
2023-02-19T09:14:46.219Z,95501.00
2023-02-19T09:15:46.359Z,95505.00
2023-02-19T09:16:46.225Z,95505.00
2023-02-19T09:17:46.236Z,95503.00
2023-02-19T09:18:46.243Z,95509.00
2023-02-19T09:19:46.193Z,95505.00
2023-02-19T09:20:46.184Z,95495.00
2023-02-19T09:21:46.205Z,95489.00
2023-02-19T09:22:46.232Z,95489.00
2023-02-19T09:23:46.204Z,95485.00
2023-02-19T09:24:46.162Z,95485.00
2023-02-19T09:25:46.195Z,95483.00
2023-02-19T09:26:46.149Z,95487.00
2023-02-19T09:27:46.184Z,95489.00
2023-02-19T09:28:46.230Z,95499.00
2023-02-19T09:29:46.147Z,95503.00
2023-02-19T09:30:46.122Z,95501.00
2023-02-19T09:31:46.233Z,95485.00
2023-02-19T09:32:46.135Z,95481.00
2023-02-19T09:33:46.145Z,95483.00
2023-02-19T09:34:46.112Z,95481.00
2023-02-19T09:35:46.125Z,95483.00
2023-02-19T09:36:46.112Z,95481.00
2023-02-19T09:37:46.085Z,95487.00
2023-02-19T09:38:46.108Z,95487.00
2023-02-19T09:39:46.053Z,95483.00
2023-02-19T09:40:46.087Z,95477.00
2023-02-19T09:41:46.058Z,95473.00
2023-02-19T09:42:46.050Z,95467.00
2023-02-19T09:43:46.032Z,95467.00
2023-02-19T09:44:46.063Z,95477.00
2023-02-19T09:45:46.045Z,95487.00
2023-02-19T09:46:46.067Z,95487.00
2023-02-19T09:47:46.047Z,95477.00
2023-02-19T09:48:46.048Z,95467.00
2023-02-19T09:49:46.021Z,95464.00
2023-02-19T09:50:45.996Z,95466.00
2023-02-19T09:51:45.979Z,95471.00
2023-02-19T09:52:46.025Z,95475.00
2023-02-19T09:53:46.038Z,95473.00
2023-02-19T09:54:45.977Z,95483.00
2023-02-19T09:55:46.012Z,95479.00
2023-02-19T09:56:45.964Z,95473.00
2023-02-19T09:57:45.951Z,95467.00
2023-02-19T09:58:45.928Z,95475.00
2023-02-19T09:59:45.977Z,95477.00
2023-02-19T10:00:45.922Z,95483.00
2023-02-19T10:01:45.947Z,95483.00
2023-02-19T10:02:45.918Z,95479.00
2023-02-19T10:03:45.896Z,95477.00
2023-02-19T10:04:45.947Z,95479.00
2023-02-19T10:05:45.902Z,95481.00
2023-02-19T10:06:45.915Z,95481.00
2023-02-19T10:07:45.955Z,95483.00
2023-02-19T10:08:45.987Z,95481.00
2023-02-19T10:09:46.061Z,95479.00
2023-02-19T10:10:46.122Z,95477.00
2023-02-19T10:11:46.184Z,95477.00
2023-02-19T10:12:46.211Z,95475.00
2023-02-19T10:13:46.309Z,95464.00
2023-02-19T10:14:46.338Z,95466.00
2023-02-19T10:15:46.434Z,95471.00
2023-02-19T10:16:46.480Z,95481.00
2023-02-19T10:17:46.525Z,95483.00
2023-02-19T10:18:46.593Z,95481.00
2023-02-19T10:19:46.663Z,95473.00
2023-02-19T10:20:46.693Z,95462.00
2023-02-19T10:21:46.768Z,95469.00
2023-02-19T10:22:46.799Z,95475.00
2023-02-19T10:23:46.877Z,95471.00
2023-02-19T10:24:46.933Z,95467.00
2023-02-19T10:25:46.954Z,95469.00
2023-02-19T10:26:47.002Z,95471.00
2023-02-19T10:27:47.067Z,95479.00
2023-02-19T10:28:47.139Z,95479.00
2023-02-19T10:29:47.147Z,95481.00
2023-02-19T10:30:47.272Z,95485.00
2023-02-19T10:31:47.328Z,95493.00
2023-02-19T10:32:47.318Z,95485.00
2023-02-19T10:33:47.351Z,95479.00
2023-02-19T10:34:47.424Z,95473.00
2023-02-19T10:35:47.467Z,95473.00
2023-02-19T10:36:47.516Z,95477.00
2023-02-19T10:37:47.562Z,95481.00
2023-02-19T10:38:47.609Z,95479.00
2023-02-19T10:39:47.648Z,95479.00
2023-02-19T10:40:47.671Z,95473.00
2023-02-19T10:41:47.745Z,95471.00
2023-02-19T10:42:47.756Z,95469.00
2023-02-19T10:43:47.837Z,95473.00
2023-02-19T10:44:47.858Z,95469.00
2023-02-19T10:45:47.894Z,95475.00
2023-02-19T10:46:47.963Z,95473.00
2023-02-19T10:47:47.989Z,95466.00
2023-02-19T10:48:48.008Z,95464.00
2023-02-19T10:49:48.076Z,95458.00
2023-02-19T10:50:48.088Z,95450.00
2023-02-19T10:51:48.125Z,95450.00
2023-02-19T10:52:48.168Z,95460.00
2023-02-19T10:53:48.205Z,95456.00
2023-02-19T10:54:48.218Z,95458.00
2023-02-19T10:55:48.243Z,95460.00
2023-02-19T10:56:48.293Z,95458.00
2023-02-19T10:57:48.302Z,95456.00
2023-02-19T10:58:48.326Z,95460.00
2023-02-19T10:59:48.369Z,95462.00
2023-02-19T11:00:48.423Z,95466.00
2023-02-19T11:01:48.516Z,95467.00
2023-02-19T11:02:48.484Z,95460.00
2023-02-19T11:03:48.534Z,95458.00
2023-02-19T11:04:48.602Z,95454.00
2023-02-19T11:05:48.592Z,95450.00
2023-02-19T11:06:48.677Z,95450.00
2023-02-19T11:07:48.723Z,95446.00
2023-02-19T11:08:48.765Z,95446.00
2023-02-19T11:09:48.826Z,95442.00
2023-02-19T11:10:48.844Z,95442.00
2023-02-19T11:11:49.167Z,95440.00
2023-02-19T11:12:48.898Z,95434.00
2023-02-19T11:13:48.939Z,95438.00
2023-02-19T11:14:48.938Z,95440.00
2023-02-19T11:15:48.997Z,95444.00
2023-02-19T11:16:48.983Z,95440.00
2023-02-19T11:17:48.989Z,95434.00
2023-02-19T11:22:49.101Z,95407.00
2023-02-19T11:23:49.150Z,95414.00
2023-02-19T11:24:49.163Z,95420.00
2023-02-19T11:25:49.214Z,95413.00
2023-02-19T11:26:49.248Z,95407.00
2023-02-19T11:27:49.328Z,95409.00
2023-02-19T11:28:49.398Z,95414.00
2023-02-19T11:29:49.437Z,95416.00
2023-02-19T11:30:49.511Z,95428.00
2023-02-19T11:31:49.628Z,95430.00
2023-02-19T11:32:49.673Z,95414.00
2023-02-19T11:33:49.706Z,95401.00
2023-02-19T11:34:49.765Z,95393.00
2023-02-19T11:35:49.793Z,95389.00
2023-02-19T11:36:49.853Z,95401.00
2023-02-19T11:37:49.939Z,95391.00
2023-02-19T11:39:50.062Z,95383.00
2023-02-19T11:40:50.142Z,95377.00
2023-02-19T11:41:50.185Z,95369.00
2023-02-19T11:42:50.247Z,95369.00
2023-02-19T11:48:50.544Z,95358.00
2023-02-19T11:49:50.526Z,95352.00
2023-02-19T11:50:50.550Z,95350.00
2023-02-19T11:51:52.730Z,95354.00
2023-02-19T11:52:50.547Z,95346.00
2023-02-19T11:53:50.642Z,95342.00
2023-02-19T11:54:50.643Z,95334.00
2023-02-19T11:55:50.572Z,95336.00
2023-02-19T11:56:50.761Z,95336.00
2023-02-19T11:57:50.640Z,95330.00
2023-02-19T11:58:50.650Z,95322.00
2023-02-19T11:59:50.641Z,95313.00
2023-02-19T12:00:50.678Z,95311.00
2023-02-19T12:07:50.727Z,95317.00
2023-02-19T12:08:50.731Z,95297.00
2023-02-19T12:09:50.742Z,95295.00
2023-02-19T12:10:50.783Z,95297.00
2023-02-19T12:11:50.782Z,95307.00
2023-02-19T12:12:50.789Z,95317.00
2023-02-19T12:13:50.760Z,95295.00
2023-02-19T12:14:50.800Z,95309.00
2023-02-19T12:15:50.818Z,95299.00
2023-02-19T12:16:50.824Z,95280.00
2023-02-19T12:17:50.843Z,95289.00
2023-02-19T12:18:50.834Z,95301.00
2023-02-19T12:19:50.854Z,95289.00
2023-02-19T12:20:50.848Z,95305.00
2023-02-19T12:21:50.879Z,95285.00
2023-02-19T12:22:50.884Z,95301.00
2023-02-19T12:24:50.896Z,95283.00
2023-02-19T12:25:50.923Z,95276.00
2023-02-19T12:26:50.936Z,95287.00
2023-02-19T12:27:50.963Z,95293.00
2023-02-19T12:28:50.964Z,95295.00
2023-02-19T12:29:50.990Z,95293.00
2023-02-19T12:30:51.019Z,95291.00
2023-02-19T12:31:51.054Z,95289.00
2023-02-19T12:32:51.055Z,95295.00
2023-02-19T12:33:51.086Z,95295.00
2023-02-19T12:34:51.090Z,95281.00
2023-02-19T12:35:51.129Z,95303.00
2023-02-19T12:36:51.182Z,95295.00
2023-02-19T12:37:51.250Z,95285.00
2023-02-19T12:38:51.305Z,95289.00
2023-02-19T12:39:51.375Z,95281.00
2023-02-19T12:40:51.412Z,95280.00
2023-02-19T12:41:51.506Z,95283.00
2023-02-19T12:42:51.549Z,95287.00
2023-02-19T12:43:51.616Z,95285.00
2023-02-19T12:44:51.719Z,95278.00
2023-02-19T12:45:51.768Z,95258.00
2023-02-19T12:46:51.786Z,95289.00
2023-02-19T12:47:51.846Z,95285.00
2023-02-19T12:48:51.917Z,95270.00
2023-02-19T12:49:51.959Z,95280.00
2023-02-19T12:50:52.015Z,95281.00
2023-02-19T12:51:52.085Z,95256.00
2023-02-19T12:52:52.135Z,95270.00
2023-02-19T12:53:52.228Z,95283.00
2023-02-19T13:02:52.622Z,95268.00
2023-02-19T13:03:52.663Z,95276.00
2023-02-19T13:04:52.681Z,95254.00
2023-02-19T13:05:52.734Z,95268.00
2023-02-19T13:06:52.728Z,95278.00
2023-02-19T13:07:52.712Z,95280.00
2023-02-19T13:09:05.914Z,95287.00
2023-02-19T13:09:53.691Z,95278.00
2023-02-19T13:10:52.756Z,95281.00
2023-02-19T13:11:52.729Z,95283.00
2023-02-19T13:12:52.731Z,95270.00
2023-02-19T13:13:52.697Z,95264.00
2023-02-19T13:14:52.751Z,95266.00
2023-02-19T13:15:52.669Z,95270.00
2023-02-19T13:16:52.685Z,95281.00
2023-02-19T13:17:52.671Z,95297.00
2023-02-19T13:18:52.714Z,95291.00
2023-02-19T13:19:52.630Z,95291.00
2023-02-19T13:20:52.676Z,95291.00
2023-02-19T13:21:52.657Z,95285.00
2023-02-19T13:22:52.627Z,95289.00
2023-02-19T13:23:52.646Z,95303.00
2023-02-19T13:24:52.641Z,95299.00
2023-02-19T13:25:53.843Z,95305.00
2023-02-19T13:26:52.674Z,95311.00
2023-02-19T13:27:52.737Z,95313.00
2023-02-19T13:28:52.784Z,95315.00
2023-02-19T13:29:53.356Z,95319.00
2023-02-19T13:30:52.950Z,95319.00
2023-02-19T13:31:52.908Z,95326.00
2023-02-19T13:32:52.880Z,95322.00
2023-02-19T13:33:52.922Z,95319.00
2023-02-19T13:34:52.977Z,95326.00
2023-02-19T13:35:53.021Z,95326.00